Time;durP1;ratioP1;P1;durP2;ratioP2;P2;SDS_P1;SDS_P2;PMS_P1;PMS_P2;Temp;Humidity;BMP_temperature;BMP_pressure;BME280_temperature;BME280_humidity;BME280_pressure;Samples;Min_cycle;Max_cycle;Signal;HPM_P1;HPM_P2
2022/05/20 00:01:09;;;;;;;7.63;5.15;;;;;;;15.91;100.00;96801.97;5028317;28;20084;-81
2022/05/20 00:03:36;;;;;;;7.63;5.10;;;;;;;16.00;100.00;96796.41;5028754;28;20113;-83
2022/05/20 00:06:02;;;;;;;7.10;4.80;;;;;;;15.99;100.00;96804.53;5024842;28;20037;-80
2022/05/20 00:08:32;;;;;;;9.93;4.75;;;;;;;15.82;100.00;96811.81;5031313;28;20411;-81
2022/05/20 00:10:58;;;;;;;13.10;6.30;;;;;;;15.76;100.00;96813.38;5037381;28;20048;-80
2022/05/20 00:13:26;;;;;;;8.50;4.73;;;;;;;15.76;100.00;96813.38;5025833;28;20040;-81
2022/05/20 00:15:53;;;;;;;7.77;4.67;;;;;;;15.83;100.00;96810.84;5027622;28;20042;-81
2022/05/20 00:18:19;;;;;;;11.63;5.25;;;;;;;15.74;100.00;96814.53;5021921;28;20037;-81
2022/05/20 00:20:45;;;;;;;7.27;5.00;;;;;;;15.75;100.00;96814.34;5025504;28;20037;-80
2022/05/20 00:23:12;;;;;;;10.47;5.33;;;;;;;15.84;100.00;96816.97;5030015;28;20033;-81
2022/05/20 00:25:47;;;;;;;7.18;5.22;;;;;;;15.75;100.00;96824.94;5034207;28;20029;-81
2022/05/20 00:28:13;;;;;;;8.20;4.30;;;;;;;15.71;100.00;96830.81;5022853;28;20457;-81
2022/05/20 00:30:39;;;;;;;11.20;6.37;;;;;;;15.83;100.00;96839.16;5023580;28;20056;-81
2022/05/20 00:33:05;;;;;;;7.78;5.35;;;;;;;15.78;100.00;96837.03;5034042;28;20092;-81
2022/05/20 00:35:31;;;;;;;7.38;5.13;;;;;;;15.67;100.00;96830.34;5030361;28;20034;-81
2022/05/20 00:37:57;;;;;;;7.83;4.70;;;;;;;15.61;100.00;96827.53;5032384;28;20026;-80
2022/05/20 00:40:25;;;;;;;9.43;5.03;;;;;;;15.60;100.00;96834.66;5035024;28;20021;-81
2022/05/20 00:43:00;;;;;;;8.40;5.57;;;;;;;15.63;100.00;96831.66;5048140;28;20307;-81
2022/05/20 00:45:26;;;;;;;9.17;5.83;;;;;;;15.54;100.00;96828.22;5027806;28;20045;-81
2022/05/20 00:47:51;;;;;;;8.65;5.32;;;;;;;15.62;100.00;96823.88;5024082;28;20099;-81
2022/05/20 00:50:18;;;;;;;8.73;5.43;;;;;;;15.68;100.00;96813.41;5024769;28;20083;-81
2022/05/20 00:52:49;;;;;;;8.23;5.40;;;;;;;15.66;100.00;96814.53;5013060;28;20033;-81
2022/05/20 00:55:18;;;;;;;7.77;4.67;;;;;;;15.64;100.00;96806.78;5019968;28;20049;-81
2022/05/20 00:57:52;;;;;;;9.07;5.23;;;;;;;15.63;100.00;96799.03;5031884;28;20033;-79
2022/05/20 01:00:25;;;;;;;6.73;4.63;;;;;;;15.61;100.00;96793.88;5029922;28;20079;-81
2022/05/20 01:02:54;;;;;;;8.07;5.28;;;;;;;15.65;100.00;96799.66;5029440;28;20037;-80
2022/05/20 01:05:26;;;;;;;7.77;4.63;;;;;;;15.54;100.00;96799.06;5038242;28;20726;-81
2022/05/20 01:07:53;;;;;;;9.00;5.33;;;;;;;15.41;100.00;96804.13;5017138;28;20034;-81
2022/05/20 01:10:19;;;;;;;8.07;4.83;;;;;;;15.41;100.00;96795.34;5042236;28;20067;-80
2022/05/20 01:12:53;;;;;;;8.50;5.63;;;;;;;15.38;100.00;96790.41;5058231;28;20034;-80
2022/05/20 01:15:19;;;;;;;10.53;5.70;;;;;;;15.34;100.00;96787.28;5021937;28;20052;-80
2022/05/20 01:17:47;;;;;;;10.37;5.80;;;;;;;15.33;100.00;96785.63;5018728;28;20132;-81
2022/05/20 01:20:19;;;;;;;11.10;5.57;;;;;;;15.38;100.00;96777.97;5025667;28;20057;-80
2022/05/20 01:22:54;;;;;;;8.80;5.47;;;;;;;15.31;100.00;96775.19;5009092;28;20057;-80
2022/05/20 01:25:22;;;;;;;10.07;5.20;;;;;;;15.36;100.00;96774.69;5022722;28;20033;-81
2022/05/20 01:27:48;;;;;;;8.83;5.30;;;;;;;15.39;100.00;96776.13;5034114;28;20065;-81
2022/05/20 01:30:21;;;;;;;9.43;5.00;;;;;;;15.40;100.00;96772.50;5028011;28;20071;-81
2022/05/20 01:32:47;;;;;;;10.60;4.70;;;;;;;15.48;100.00;96781.22;5029408;28;20128;-80
2022/05/20 01:35:21;;;;;;;9.70;4.63;;;;;;;15.51;100.00;96775.56;5022386;28;20083;-81
2022/05/20 01:37:46;;;;;;;7.70;3.90;;;;;;;15.46;100.00;96777.94;5013476;28;20133;-80
2022/05/20 01:40:12;;;;;;;8.63;4.47;;;;;;;15.47;100.00;96768.97;5031197;28;20038;-81
2022/05/20 01:42:55;;;;;;;11.00;4.43;;;;;;;15.50;100.00;96763.31;5021768;28;20110;-81
2022/05/20 01:45:31;;;;;;;6.68;4.40;;;;;;;15.51;100.00;96772.09;5026085;28;20032;-81
2022/05/20 01:48:11;;;;;;;8.30;4.73;;;;;;;15.51;100.00;96753.53;5028611;28;20037;-81
2022/05/20 01:50:43;;;;;;;8.87;4.07;;;;;;;15.51;100.00;96759.66;5027441;28;20033;-80
2022/05/20 01:53:17;;;;;;;6.03;3.73;;;;;;;15.63;100.00;96761.91;5019471;28;21072;-81
2022/05/20 01:56:00;;;;;;;8.00;4.30;;;;;;;15.69;100.00;96761.19;5007010;28;20029;-80
2022/05/20 01:58:51;;;;;;;14.75;4.30;;;;;;;15.64;100.00;96759.06;5020305;28;20040;-80
2022/05/20 02:01:25;;;;;;;7.67;4.70;;;;;;;15.74;100.00;96753.56;5038828;28;20025;-80
2022/05/20 02:03:59;;;;;;;8.60;4.63;;;;;;;15.76;100.00;96749.72;5029258;28;20041;-81
2022/05/20 02:06:32;;;;;;;7.87;4.70;;;;;;;15.86;100.00;96746.81;5029020;28;20068;-80
2022/05/20 02:09:07;;;;;;;9.15;4.63;;;;;;;15.99;100.00;96738.22;5034485;28;20060;-80
2022/05/20 02:11:52;;;;;;;10.03;4.77;;;;;;;15.88;100.00;96728.06;5028866;28;20040;-80
2022/05/20 02:14:20;;;;;;;10.97;4.73;;;;;;;15.83;100.00;96735.72;5043578;28;20028;-80
2022/05/20 02:17:17;;;;;;;8.73;4.53;;;;;;;15.77;100.00;96731.97;5028534;28;20050;-80
2022/05/20 02:19:52;;;;;;;6.37;4.67;;;;;;;15.88;100.00;96733.38;5020098;28;20045;-80
2022/05/20 02:22:22;;;;;;;7.13;4.33;;;;;;;15.92;100.00;96732.00;5031467;28;20029;-81
2022/05/20 02:24:50;;;;;;;6.97;4.23;;;;;;;15.83;100.00;96738.38;5014409;28;20065;-81
2022/05/20 02:27:22;;;;;;;7.80;4.43;;;;;;;15.86;100.00;96735.38;5022389;28;20041;-81
2022/05/20 02:29:58;;;;;;;6.90;4.50;;;;;;;15.95;100.00;96728.97;5013586;28;20114;-80
2022/05/20 02:32:36;;;;;;;9.73;4.57;;;;;;;15.95;100.00;96734.28;5033807;28;20090;-81
2022/05/20 02:35:02;;;;;;;8.23;4.43;;;;;;;15.93;100.00;96728.38;5022308;28;20393;-81
2022/05/20 02:37:34;;;;;;;8.00;4.40;;;;;;;15.86;100.00;96725.59;5018576;28;20095;-81
2022/05/20 02:40:01;;;;;;;6.83;4.37;;;;;;;15.81;100.00;96729.78;5026640;28;20041;-81
2022/05/20 02:42:28;;;;;;;9.57;4.70;;;;;;;15.87;100.00;96729.06;5031631;28;20648;-81
2022/05/20 02:44:59;;;;;;;6.87;4.63;;;;;;;15.83;100.00;96735.72;5030029;28;20033;-80
2022/05/20 02:47:31;;;;;;;10.53;4.87;;;;;;;15.68;100.00;96743.66;5018157;28;20589;-81
2022/05/20 02:50:02;;;;;;;8.00;4.55;;;;;;;15.54;100.00;96758.47;5017361;28;20029;-80
2022/05/20 02:52:28;;;;;;;6.80;3.90;;;;;;;15.53;100.00;96759.50;5024764;28;20041;-80
2022/05/20 02:54:53;;;;;;;11.70;8.10;;;;;;;15.55;100.00;96765.41;5024478;28;20033;-81
2022/05/20 02:57:21;;;;;;;11.60;6.45;;;;;;;15.49;100.00;96766.13;5033134;28;20037;-81
2022/05/20 03:05:17;;;;;;;8.30;5.13;;;;;;;15.36;100.00;96750.84;5022174;28;20041;-81
2022/05/20 03:07:42;;;;;;;7.67;5.17;;;;;;;15.35;100.00;96751.00;5033695;28;20057;-81
2022/05/20 03:10:08;;;;;;;8.67;4.47;;;;;;;15.49;100.00;96742.28;5005936;28;20073;-80
2022/05/20 03:12:35;;;;;;;6.13;4.00;;;;;;;15.55;100.00;96745.03;5030600;28;20516;-80
2022/05/20 03:15:06;;;;;;;7.87;4.30;;;;;;;15.69;100.00;96740.84;5027937;28;20061;-80
2022/05/20 03:17:33;;;;;;;7.50;4.20;;;;;;;15.70;100.00;96750.44;5039667;28;20029;-80
2022/05/20 03:19:59;;;;;;;11.00;4.83;;;;;;;15.71;100.00;96751.25;4999472;28;20025;-82
2022/05/20 03:22:24;;;;;;;8.33;4.77;;;;;;;15.68;100.00;96743.66;5010919;28;20037;-81
2022/05/20 03:24:50;;;;;;;8.27;4.60;;;;;;;15.67;100.00;96742.84;5008807;28;20029;-80
2022/05/20 03:27:19;;;;;;;8.37;4.23;;;;;;;15.65;100.00;96749.28;5023394;28;20034;-80
2022/05/20 03:29:45;;;;;;;8.17;5.27;;;;;;;15.75;100.00;96752.53;5029379;28;20040;-80
2022/05/20 03:32:11;;;;;;;9.27;5.27;;;;;;;15.75;100.00;96744.59;5016091;28;20025;-80
2022/05/20 03:34:38;;;;;;;8.20;4.50;;;;;;;15.78;100.00;96741.56;5029404;28;20521;-81
2022/05/20 03:37:05;;;;;;;8.52;4.97;;;;;;;15.78;100.00;96741.56;5024432;28;20053;-80
2022/05/20 03:39:31;;;;;;;9.40;4.90;;;;;;;15.71;100.00;96744.13;5033840;28;20021;-80
2022/05/20 03:41:57;;;;;;;8.18;4.93;;;;;;;15.68;100.00;96743.66;5022059;28;20571;-80
2022/05/20 03:44:24;;;;;;;8.15;4.63;;;;;;;15.71;100.00;96735.34;5039204;28;20032;-79
2022/05/20 03:46:52;;;;;;;9.07;4.35;;;;;;;15.65;100.00;96741.31;5028617;28;20033;-80
2022/05/20 03:49:19;;;;;;;7.67;4.80;;;;;;;15.63;100.00;96740.69;5030158;28;21303;-80
2022/05/20 03:51:47;;;;;;;8.68;4.75;;;;;;;15.65;100.00;96736.84;5032473;28;20041;-80
2022/05/20 03:54:16;;;;;;;9.03;4.63;;;;;;;15.68;100.00;96743.66;5034698;28;20108;-80
2022/05/20 03:56:42;;;;;;;7.77;4.77;;;;;;;15.74;100.00;96735.81;5038028;28;20037;-80
2022/05/20 03:59:09;;;;;;;8.43;5.57;;;;;;;15.71;100.00;96738.81;5027455;28;20480;-80
2022/05/20 04:04:21;;;;;;;7.57;4.63;;;;;;;15.78;100.00;96744.22;5026649;28;20033;-79
2022/05/20 04:06:47;;;;;;;7.70;4.63;;;;;;;15.72;100.00;96750.25;5024209;28;20072;-80
2022/05/20 04:09:12;;;;;;;7.88;4.50;;;;;;;15.71;100.00;96746.78;5021928;28;20097;-79
2022/05/20 04:11:38;;;;;;;10.93;5.07;;;;;;;15.65;100.00;96743.97;5050632;28;20090;-79
2022/05/20 04:14:04;;;;;;;9.93;4.83;;;;;;;15.65;100.00;96744.78;5033450;28;20041;-80
2022/05/20 04:16:30;;;;;;;13.68;5.00;;;;;;;15.73;100.00;96744.78;5027554;28;20041;-80
2022/05/20 04:18:56;;;;;;;12.27;5.18;;;;;;;15.70;100.00;96737.19;5027614;28;20112;-80
2022/05/20 04:21:22;;;;;;;7.17;4.43;;;;;;;15.67;100.00;96737.53;5035161;28;20057;-80
2022/05/20 04:23:48;;;;;;;7.87;4.97;;;;;;;15.73;100.00;96743.94;5025416;28;20102;-81
2022/05/20 04:26:17;;;;;;;14.93;4.63;;;;;;;15.76;100.00;96740.91;5018512;28;20466;-80
2022/05/20 04:28:42;;;;;;;8.60;4.60;;;;;;;15.76;100.00;96740.91;5023798;28;20037;-80
2022/05/20 04:31:10;;;;;;;12.20;4.87;;;;;;;15.82;100.00;96742.03;5041241;28;20036;-80
2022/05/20 04:33:37;;;;;;;6.78;4.45;;;;;;;15.85;100.00;96750.47;5021786;28;20085;-80
2022/05/20 04:36:05;;;;;;;7.65;4.65;;;;;;;15.86;100.00;96748.63;5027664;28;20065;-80
2022/05/20 04:38:31;;;;;;;10.00;4.70;;;;;;;15.91;100.00;96743.63;5035706;28;20083;-80
2022/05/20 04:49:11;;;;;;;9.48;5.20;;;;;;;16.17;100.00;96727.28;5038938;28;20228;-80
2022/05/20 04:51:38;;;;;;;8.10;5.30;;;;;;;16.20;100.00;96727.75;5024657;28;20523;-80
2022/05/20 04:56:50;;;;;;;9.07;5.35;;;;;;;16.46;100.00;96729.09;5027473;28;20038;-80
2022/05/20 04:59:16;;;;;;;8.30;4.85;;;;;;;16.48;100.00;96735.06;5024600;28;20021;-80
2022/05/20 05:01:42;;;;;;;10.15;5.20;;;;;;;16.62;100.00;96726.25;5027167;28;20553;-80
2022/05/20 05:04:09;;;;;;;10.25;5.22;;;;;;;16.60;100.00;96727.44;5025716;28;20113;-80
2022/05/20 05:06:34;;;;;;;21.88;11.70;;;;;;;16.70;100.00;96730.66;5030455;28;20399;-82
2022/05/20 05:09:02;;;;;;;24.40;13.55;;;;;;;16.78;100.00;96725.25;5020000;28;20041;-80
2022/05/20 05:11:28;;;;;;;15.82;7.43;;;;;;;16.82;100.00;96728.38;5008372;28;20855;-79
2022/05/20 05:13:54;;;;;;;10.10;5.85;;;;;;;16.87;100.00;96726.00;5021172;28;20038;-80
2022/05/20 05:16:19;;;;;;;9.15;5.05;;;;;;;16.90;100.00;96728.25;5013716;28;20127;-80
2022/05/20 05:18:45;;;;;;;8.73;4.85;;;;;;;17.08;100.00;96731.31;5030536;28;20109;-80
2022/05/20 05:21:15;;;;;;;6.90;3.90;;;;;;;17.25;100.00;96723.94;5022453;28;20530;-80
2022/05/20 05:23:41;;;;;;;7.70;4.78;;;;;;;17.42;100.00;96727.19;5022278;28;20121;-80
2022/05/20 05:26:08;;;;;;;8.10;4.63;;;;;;;17.58;100.00;96721.59;5046386;28;20033;-81
2022/05/20 05:28:34;;;;;;;9.63;4.72;;;;;;;17.73;100.00;96726.00;5040777;28;20056;-80
2022/05/20 05:31:01;;;;;;;7.35;4.55;;;;;;;17.92;100.00;96719.25;5039782;28;20045;-80
2022/05/20 05:33:27;;;;;;;11.77;4.95;;;;;;;18.19;100.00;96714.94;5020345;28;20414;-80
2022/05/20 05:35:53;;;;;;;8.52;4.55;;;;;;;18.37;100.00;96713.38;5023524;28;20045;-80
2022/05/20 05:38:19;;;;;;;7.28;4.35;;;;;;;18.50;100.00;96717.97;5048485;28;20037;-80
2022/05/20 05:40:45;;;;;;;8.05;5.20;;;;;;;18.70;100.00;96714.56;5033235;28;20033;-80
2022/05/20 05:43:11;;;;;;;10.20;4.80;;;;;;;18.51;100.00;96726.75;5036462;28;20030;-80
2022/05/20 05:45:38;;;;;;;8.45;4.75;;;;;;;18.77;100.00;96720.78;5025690;28;20073;-80
2022/05/20 05:48:09;;;;;;;8.27;4.70;;;;;;;19.20;100.00;96728.50;5026453;28;20032;-80
2022/05/20 05:50:37;;;;;;;7.35;4.15;;;;;;;19.55;100.00;96724.69;5042303;28;20036;-81
2022/05/20 05:53:13;;;;;;;9.63;4.75;;;;;;;19.21;100.00;96724.81;5027436;28;20664;-80
2022/05/20 05:55:41;;;;;;;7.90;4.80;;;;;;;19.61;100.00;96723.03;5020738;28;20038;-79
2022/05/20 05:58:08;;;;;;;9.05;4.38;;;;;;;19.43;100.00;96726.31;5022876;28;20029;-80
2022/05/20 06:00:34;;;;;;;9.18;4.20;;;;;;;19.95;100.00;96724.75;5027966;28;20026;-79
2022/05/20 06:02:59;;;;;;;8.85;4.60;;;;;;;20.04;100.00;96713.84;5030722;28;20060;-80
2022/05/20 06:05:25;;;;;;;7.15;4.07;;;;;;;20.27;100.00;96711.53;5026858;28;20053;-80
2022/05/20 06:07:51;;;;;;;8.75;4.93;;;;;;;20.31;100.00;96710.09;5029369;28;20088;-80
2022/05/20 06:10:17;;;;;;;9.50;3.97;;;;;;;20.48;100.00;96713.94;5036237;28;20062;-80
2022/05/20 06:12:43;;;;;;;7.90;4.43;;;;;;;20.76;100.00;96707.53;5023577;28;20042;-79
2022/05/20 06:15:15;;;;;;;8.60;4.47;;;;;;;21.06;100.00;96706.97;5004237;28;20032;-81
2022/05/20 06:17:41;;;;;;;7.93;4.00;;;;;;;21.41;100.00;96710.91;5028306;28;20112;-80
2022/05/20 06:20:08;;;;;;;10.60;4.43;;;;;;;21.43;100.00;96708.03;5029595;28;20034;-80
2022/05/20 06:22:34;;;;;;;9.18;4.15;;;;;;;21.68;100.00;96701.88;5031672;28;20046;-80
2022/05/20 06:24:59;;;;;;;8.65;4.90;;;;;;;22.33;100.00;96697.81;5013111;28;20104;-80
2022/05/20 06:27:25;;;;;;;10.20;4.65;;;;;;;22.26;99.33;96694.34;5035235;28;20075;-80
2022/05/20 06:29:52;;;;;;;7.22;3.88;;;;;;;22.23;97.99;96700.19;5028515;28;20041;-80
2022/05/20 06:32:18;;;;;;;7.43;3.97;;;;;;;22.17;99.96;96700.25;5008142;28;20494;-79
2022/05/20 06:40:19;;;;;;;7.93;3.58;;;;;;;22.80;96.94;96691.91;5028987;28;20732;-80
2022/05/20 06:42:45;;;;;;;10.50;4.68;;;;;;;22.72;96.08;96698.41;5028141;28;20073;-81
2022/05/20 06:45:13;;;;;;;8.95;4.53;;;;;;;22.76;95.14;96691.53;5035378;28;20033;-80
2022/05/20 06:47:41;;;;;;;8.38;4.30;;;;;;;23.17;96.17;96691.88;5027764;28;20045;-81
2022/05/20 06:50:09;;;;;;;7.38;3.58;;;;;;;23.47;90.75;96689.16;5031579;28;20033;-81
2022/05/20 06:52:35;;;;;;;9.45;3.83;;;;;;;23.45;91.86;96691.28;5036979;28;20543;-81
2022/05/20 06:55:04;;;;;;;12.70;4.47;;;;;;;23.62;89.65;96688.75;5048377;28;20042;-81
2022/05/20 06:57:30;;;;;;;6.45;3.70;;;;;;;23.74;89.99;96690.44;5015015;28;20037;-79
2022/05/20 06:59:56;;;;;;;9.23;4.43;;;;;;;24.00;86.33;96685.66;5034950;28;20048;-81
2022/05/20 07:02:21;;;;;;;6.75;3.65;;;;;;;24.21;87.11;96682.41;5037010;28;20036;-81
2022/05/20 07:04:47;;;;;;;5.53;3.60;;;;;;;24.48;87.96;96690.00;5016836;28;20041;-81
2022/05/20 07:07:13;;;;;;;7.40;4.13;;;;;;;24.65;86.85;96688.22;5041994;28;20052;-80
2022/05/20 07:09:39;;;;;;;8.23;4.22;;;;;;;24.77;83.69;96684.66;5023078;28;20033;-81
2022/05/20 07:12:06;;;;;;;10.45;4.22;;;;;;;24.78;84.60;96681.75;5022312;28;20045;-81
2022/05/20 07:14:32;;;;;;;7.78;3.72;;;;;;;25.41;81.46;96682.66;5022069;28;20056;-80
2022/05/20 07:17:01;;;;;;;10.00;4.05;;;;;;;25.97;79.09;96674.75;5031865;28;20053;-81
2022/05/20 07:19:27;;;;;;;8.77;4.35;;;;;;;26.47;74.30;96671.13;5034404;28;20085;-80
2022/05/20 07:21:53;;;;;;;8.68;3.88;;;;;;;26.65;73.04;96667.34;5035877;28;20045;-81
2022/05/20 07:24:18;;;;;;;12.23;4.13;;;;;;;26.54;71.71;96669.91;5043286;28;20044;-81
2022/05/20 07:26:45;;;;;;;11.15;4.72;;;;;;;26.26;72.47;96678.94;5021848;28;20057;-81
2022/05/20 07:29:11;;;;;;;6.63;3.88;;;;;;;26.84;71.62;96668.66;5047852;28;20037;-81
2022/05/20 07:31:36;;;;;;;7.50;3.42;;;;;;;26.95;73.29;96670.41;5024660;28;20045;-81
2022/05/20 07:34:02;;;;;;;6.82;3.50;;;;;;;27.39;69.72;96672.22;5038216;28;20036;-78
2022/05/20 07:36:28;;;;;;;7.35;3.50;;;;;;;27.78;69.17;96666.66;5042883;28;20042;-82
2022/05/20 07:38:54;;;;;;;8.25;4.38;;;;;;;27.92;66.30;96671.38;5035447;28;20131;-82
2022/05/20 07:41:23;;;;;;;9.32;4.60;;;;;;;27.87;68.17;96670.53;5041094;28;20033;-81
2022/05/20 07:43:50;;;;;;;11.60;3.67;;;;;;;27.85;67.10;96672.66;5012278;28;20042;-82
2022/05/20 07:46:16;;;;;;;7.72;4.18;;;;;;;27.93;64.90;96664.06;5027930;28;20038;-82
2022/05/20 07:48:42;;;;;;;9.73;3.80;;;;;;;27.67;67.56;96668.44;5038401;28;20059;-81
2022/05/20 07:51:15;;;;;;;9.32;3.90;;;;;;;28.15;65.75;96662.06;5033690;28;20036;-82
2022/05/20 07:53:50;;;;;;;7.10;3.65;;;;;;;28.89;62.63;96660.28;5035287;28;20194;-82
2022/05/20 07:56:26;;;;;;;7.85;3.70;;;;;;;28.54;58.74;96669.91;5032627;28;20040;-82
2022/05/20 07:59:11;;;;;;;10.23;3.88;;;;;;;29.18;59.69;96663.38;5040076;28;20037;-82
2022/05/20 08:01:41;;;;;;;7.20;3.97;;;;;;;29.49;58.57;96666.94;5039712;28;20032;-82
2022/05/20 08:07:07;;;;;;;6.15;3.33;;;;;;;29.53;52.26;96668.03;5053012;28;20037;-82
2022/05/20 08:09:33;;;;;;;7.95;3.50;;;;;;;29.81;48.74;96666.72;5032762;28;20052;-82
2022/05/20 08:12:00;;;;;;;7.85;4.03;;;;;;;29.51;48.35;96667.50;5047595;28;20030;-82
2022/05/20 08:14:26;;;;;;;11.18;3.80;;;;;;;29.40;47.47;96663.13;5011040;28;20038;-81
2022/05/20 08:16:56;;;;;;;10.27;3.55;;;;;;;30.05;49.99;96656.13;5018554;28;20085;-83
2022/05/20 08:19:22;;;;;;;7.32;3.30;;;;;;;30.59;49.14;96649.25;5057672;28;20037;-82
2022/05/20 08:21:48;;;;;;;6.35;2.90;;;;;;;30.21;45.06;96654.22;5034508;28;20027;-82
2022/05/20 08:24:16;;;;;;;6.50;3.15;;;;;;;30.30;44.11;96649.06;5037930;28;20085;-82
2022/05/20 08:26:42;;;;;;;8.20;3.58;;;;;;;30.43;47.23;96656.63;5036843;28;20041;-81
2022/05/20 08:29:11;;;;;;;7.13;3.28;;;;;;;30.59;44.17;96643.00;5027864;28;20058;-82
2022/05/20 08:31:37;;;;;;;8.23;3.38;;;;;;;31.24;43.93;96641.88;5028757;28;20405;-81
2022/05/20 08:34:03;;;;;;;5.72;2.75;;;;;;;30.92;42.24;96641.50;5038062;28;20021;-83
2022/05/20 08:36:29;;;;;;;5.85;3.03;;;;;;;31.21;42.43;96642.44;5036453;28;20082;-81
2022/05/20 08:38:56;;;;;;;6.00;3.30;;;;;;;30.50;42.05;96640.03;5027744;28;20422;-82
2022/05/20 08:41:38;;;;;;;5.60;3.30;;;;;;;30.54;42.72;96646.53;5016237;28;20040;-81
2022/05/20 08:44:11;;;;;;;6.13;3.40;;;;;;;30.11;44.30;96643.34;5016771;28;20038;-81
2022/05/20 08:46:39;;;;;;;5.28;3.00;;;;;;;30.81;45.27;96639.94;5025777;28;20049;-82
2022/05/20 08:49:10;;;;;;;9.05;3.03;;;;;;;31.14;43.69;96641.94;5037965;28;20032;-82
2022/05/20 08:51:41;;;;;;;8.55;4.18;;;;;;;31.22;43.09;96640.53;5023321;28;20042;-82
2022/05/20 08:54:08;;;;;;;10.32;3.60;;;;;;;31.32;41.88;96635.09;5033455;28;20041;-82
2022/05/20 08:56:40;;;;;;;7.35;3.20;;;;;;;31.42;41.64;96635.00;5036455;28;20030;-83
2022/05/20 08:59:10;;;;;;;7.15;3.40;;;;;;;31.92;43.02;96632.16;5022320;28;20033;-82
2022/05/20 09:01:45;;;;;;;7.30;3.47;;;;;;;31.65;41.85;96632.63;5044343;28;20040;-82
2022/05/20 09:04:14;;;;;;;8.57;3.35;;;;;;;31.76;40.88;96627.91;5027534;28;20587;-82
2022/05/20 09:07:00;;;;;;;7.82;4.03;;;;;;;31.18;40.55;96628.59;5018221;28;20041;-80
2022/05/20 09:09:49;;;;;;;7.80;3.63;;;;;;;31.16;41.46;96630.81;5029339;28;20061;-82
2022/05/20 09:12:35;;;;;;;6.57;3.45;;;;;;;32.02;41.14;96614.94;5040312;28;20038;-79
2022/05/20 09:18:13;;;;;;;8.30;4.10;;;;;;;31.69;41.25;96610.06;5033247;28;20038;-81
2022/05/20 09:20:51;;;;;;;7.60;3.65;;;;;;;31.82;39.60;96610.47;5037698;28;20040;-81
2022/05/20 09:23:22;;;;;;;8.30;3.42;;;;;;;32.24;38.55;96607.09;5024117;28;20408;-79
2022/05/20 09:25:51;;;;;;;8.80;4.18;;;;;;;32.72;37.09;96600.81;5029877;28;20056;-80
2022/05/20 09:28:27;;;;;;;7.07;3.35;;;;;;;32.25;39.76;96597.81;5029487;28;20442;-81
2022/05/20 09:31:05;;;;;;;7.53;3.47;;;;;;;32.37;37.95;96595.50;5039093;28;20080;-80
2022/05/20 09:33:35;;;;;;;5.90;3.30;;;;;;;32.82;37.59;96593.31;5044556;28;20116;-81
2022/05/20 09:36:02;;;;;;;6.22;3.85;;;;;;;32.68;36.96;96599.78;5040879;28;20123;-80
2022/05/20 09:38:39;;;;;;;9.27;3.75;;;;;;;32.82;37.07;96592.50;5046218;28;20063;-82
2022/05/20 09:41:14;;;;;;;5.47;3.58;;;;;;;33.13;37.31;96592.91;5042088;28;20036;-81
2022/05/20 09:43:50;;;;;;;7.25;3.70;;;;;;;32.50;37.38;96588.59;5030901;28;20092;-78
2022/05/20 09:46:43;;;;;;;6.97;3.03;;;;;;;32.79;35.64;96587.66;5039159;28;20044;-81
2022/05/20 09:49:16;;;;;;;6.68;3.83;;;;;;;33.24;37.32;96585.41;5023750;28;20072;-79
2022/05/20 09:51:51;;;;;;;7.45;3.20;;;;;;;32.82;35.80;96581.63;5022021;28;20117;-81
2022/05/20 09:54:27;;;;;;;5.30;3.30;;;;;;;32.58;35.13;96581.66;5020259;28;20038;-80
2022/05/20 09:57:09;;;;;;;7.50;3.33;;;;;;;32.93;35.96;96583.13;5023914;28;20102;-81
2022/05/20 09:59:59;;;;;;;8.15;3.72;;;;;;;33.17;35.67;96580.34;5027627;28;20040;-80
2022/05/20 10:02:25;;;;;;;6.50;3.28;;;;;;;33.44;33.19;96568.72;5049973;28;20047;-79
2022/05/20 10:05:10;;;;;;;4.68;3.20;;;;;;;33.26;35.38;96572.28;5032283;28;20018;-78
2022/05/20 10:07:53;;;;;;;6.28;3.30;;;;;;;32.78;34.24;96561.53;5021941;28;20045;-80
2022/05/20 10:10:45;;;;;;;9.15;3.47;;;;;;;33.51;34.75;96558.28;5021884;28;20045;-81
2022/05/20 10:13:53;;;;;;;6.60;3.47;;;;;;;33.54;33.64;96546.78;5011135;28;20038;-81
2022/05/20 10:16:45;;;;;;;6.40;3.55;;;;;;;33.07;35.17;96548.59;5022678;28;20045;-80
2022/05/20 10:19:21;;;;;;;7.10;3.42;;;;;;;33.03;34.97;96552.19;5009720;28;20048;-81
2022/05/20 10:22:14;;;;;;;6.47;3.58;;;;;;;32.89;34.33;96541.19;5017836;28;20073;-79
2022/05/20 10:25:12;;;;;;;8.20;3.28;;;;;;;33.28;35.10;96542.81;5014652;28;20530;-78
2022/05/20 10:27:55;;;;;;;7.05;3.45;;;;;;;33.41;32.02;96542.06;5032234;28;20583;-79
2022/05/20 10:33:17;;;;;;;8.63;3.23;;;;;;;33.26;32.51;96532.19;5035310;28;20056;-80
2022/05/20 10:35:50;;;;;;;7.95;3.80;;;;;;;33.47;32.69;96532.69;5040538;28;20029;-80
2022/05/20 10:38:33;;;;;;;5.82;3.40;;;;;;;32.66;32.48;96525.75;5031891;28;20126;-78
2022/05/20 10:41:07;;;;;;;9.90;3.08;;;;;;;32.75;32.72;96516.63;5024856;28;20703;-80
2022/05/20 10:50:02;;;;;;;5.53;2.97;;;;;;;33.63;32.03;96522.34;5022334;28;20476;-80
2022/05/20 10:53:00;;;;;;;6.18;2.80;;;;;;;33.71;31.97;96509.94;5029505;28;20034;-81
2022/05/20 10:55:43;;;;;;;6.95;2.88;;;;;;;33.40;32.18;96512.34;5023471;28;20037;-81
2022/05/20 10:58:47;;;;;;;12.48;3.85;;;;;;;33.55;31.52;96503.94;5014386;28;20040;-79
2022/05/20 11:01:28;;;;;;;7.13;3.17;;;;;;;33.32;32.02;96495.56;5021588;28;20037;-80
2022/05/20 11:04:00;;;;;;;10.07;4.30;;;;;;;33.30;31.84;96492.38;5017322;28;20038;-80
2022/05/20 11:06:45;;;;;;;6.13;3.40;;;;;;;33.38;31.76;96493.59;5019406;28;20033;-80
2022/05/20 11:09:46;;;;;;;5.53;2.80;;;;;;;33.40;31.84;96485.09;5013682;28;20140;-80
2022/05/20 11:12:24;;;;;;;6.35;3.63;;;;;;;33.13;31.08;96488.56;5020977;28;20064;-79
2022/05/20 11:15:00;;;;;;;6.00;3.00;;;;;;;34.07;32.13;96476.53;5016317;28;20042;-78
2022/05/20 11:17:56;;;;;;;7.22;3.50;;;;;;;33.49;31.86;96480.59;5033228;28;20037;-80
2022/05/20 11:21:00;;;;;;;6.93;3.47;;;;;;;33.70;32.98;96481.03;5024858;28;20033;-79
2022/05/20 11:23:54;;;;;;;5.25;3.25;;;;;;;33.86;32.97;96470.63;5038322;28;20045;-79
2022/05/20 11:26:43;;;;;;;6.07;3.03;;;;;;;33.42;32.58;96472.78;5032794;28;20503;-80
2022/05/20 11:29:34;;;;;;;7.18;3.28;;;;;;;33.51;32.44;96484.66;5028134;28;20057;-80
2022/05/20 11:32:09;;;;;;;7.32;3.22;;;;;;;33.96;33.01;96481.34;5034340;28;20060;-80
2022/05/20 11:34:35;;;;;;;8.48;3.80;;;;;;;33.86;32.14;96467.91;5021416;28;20029;-80
2022/05/20 11:37:29;;;;;;;8.27;3.53;;;;;;;34.12;31.87;96460.84;5021383;28;20040;-80
2022/05/20 11:40:20;;;;;;;5.85;3.33;;;;;;;34.07;33.28;96454.69;5025036;28;20114;-80
2022/05/20 11:43:00;;;;;;;6.53;3.55;;;;;;;33.93;31.31;96451.94;5014520;28;20037;-80
2022/05/20 11:45:51;;;;;;;6.47;3.90;;;;;;;34.68;31.10;96448.72;5027306;28;20084;-81
2022/05/20 11:48:34;;;;;;;8.77;4.53;;;;;;;34.77;31.36;96440.59;5008376;28;20044;-80
2022/05/20 11:51:19;;;;;;;9.10;3.40;;;;;;;34.90;32.68;96434.25;5007063;28;20037;-81
2022/05/20 11:54:19;;;;;;;6.70;3.80;;;;;;;34.41;31.48;96444.13;5018659;28;20536;-80
2022/05/20 11:57:00;;;;;;;7.72;3.40;;;;;;;34.48;32.15;96438.25;5023442;28;20110;-78
2022/05/20 12:00:04;;;;;;;8.50;3.65;;;;;;;34.70;32.11;96421.09;5033611;28;20033;-81
2022/05/20 12:02:40;;;;;;;9.05;3.80;;;;;;;34.44;32.42;96402.56;5035685;28;20040;-81
2022/05/20 12:05:10;;;;;;;6.75;3.50;;;;;;;34.77;31.16;96391.41;5012935;28;20108;-80
2022/05/20 12:07:38;;;;;;;8.68;4.10;;;;;;;34.50;33.50;96379.44;5027915;28;20045;-80
2022/05/20 12:10:47;;;;;;;4.95;3.42;;;;;;;34.37;33.13;96383.03;5008555;28;20439;-79
2022/05/20 12:13:23;;;;;;;7.60;3.78;;;;;;;34.41;33.63;96375.88;5014965;28;20492;-81
2022/05/20 12:16:07;;;;;;;7.82;3.35;;;;;;;33.91;31.51;96369.59;5026950;28;20053;-81
2022/05/20 12:24:49;;;;;;;8.82;4.32;;;;;;;34.49;32.46;96325.97;5022440;28;20033;-81
2022/05/20 12:27:22;;;;;;;6.63;3.40;;;;;;;33.92;33.08;96333.81;5022428;28;20042;-83
2022/05/20 12:30:08;;;;;;;6.28;3.70;;;;;;;34.41;32.13;96324.00;5037035;28;20040;-82
2022/05/20 12:32:37;;;;;;;8.15;4.05;;;;;;;34.18;32.49;96320.44;5004216;28;20108;-78
2022/05/20 12:35:24;;;;;;;10.30;3.35;;;;;;;34.21;32.39;96311.63;5014134;28;20033;-81